Time,TemperatureF,DewpointF,PressureIn,WindDirection,WindDirectionDegrees,WindSpeedMPH,WindSpeedGustMPH,Humidity,HourlyPrecipIn,Conditions,Clouds,dailyrainin,SoftwareType,DateUTC
2013-03-26 00:00:00,32.0,22.6,30.11,NNE,12,0.0,2.0,68,0.00,,SKC,0.00,VWS V14.01,2013-03-26 05:00:00,
2013-03-26 00:03:00,31.8,22.1,30.12,WNW,297,2.0,8.0,67,0.00,,SKC,0.00,VWS V14.01,2013-03-26 05:03:00,
2013-03-26 00:08:00,31.7,22.0,30.12,WNW,297,4.0,5.0,67,0.00,,SKC,0.00,VWS V14.01,2013-03-26 05:08:00,
2013-03-26 00:13:00,31.7,22.4,30.12,WNW,298,1.0,6.0,68,0.00,,SKC,0.00,VWS V14.01,2013-03-26 05:13:00,
2013-03-26 00:18:00,31.6,22.3,30.12,WNW,300,5.0,6.0,68,0.00,,SKC,0.00,VWS V14.01,2013-03-26 05:18:00,
2013-03-26 00:23:00,31.5,22.2,30.12,WNW,300,0.0,6.0,68,0.00,,SKC,0.00,VWS V14.01,2013-03-26 05:23:00,
2013-03-26 00:28:00,31.4,22.1,30.12,WNW,300,1.0,6.0,68,0.00,,SKC,0.00,VWS V14.01,2013-03-26 05:28:00,
2013-03-26 00:30:00,32.0,22.3,30.11,WNW,297,0.0,6.0,67,0.00,,SKC,0.00,VWS V14.01,2013-03-26 05:30:00,
2013-03-26 00:34:00,31.4,22.1,30.12,WNW,300,4.0,6.0,68,0.00,,SKC,0.00,VWS V14.01,2013-03-26 05:34:00,
2013-03-26 00:39:00,31.3,22.3,30.12,WNW,301,1.0,5.0,69,0.00,,SKC,0.00,VWS V14.01,2013-03-26 05:39:00,
2013-03-26 00:44:00,31.2,21.9,30.12,WNW,301,4.0,6.0,68,0.00,,SKC,0.00,VWS V14.01,2013-03-26 05:44:00,
2013-03-26 00:49:00,31.1,22.1,30.12,WNW,302,2.0,6.0,69,0.00,,SKC,0.00,VWS V14.01,2013-03-26 05:49:00,
2013-03-26 00:54:00,31.1,21.8,30.12,WNW,302,6.0,6.0,68,0.00,,SKC,0.00,VWS V14.01,2013-03-26 05:54:00,
2013-03-26 00:59:00,31.0,21.7,30.12,WNW,302,0.0,6.0,68,0.00,,SKC,0.00,VWS V14.01,2013-03-26 05:59:00,
2013-03-26 01:00:00,31.8,22.1,30.12,WNW,297,4.0,8.0,67,0.00,,SKC,0.00,VWS V14.01,2013-03-26 06:00:00,
2013-03-26 01:05:00,30.9,21.9,30.12,WNW,302,2.0,6.0,69,0.00,,SKC,0.00,VWS V14.01,2013-03-26 06:05:00,
2013-03-26 01:10:00,30.9,21.6,30.12,WNW,302,0.0,6.0,68,0.00,,SKC,0.00,VWS V14.01,2013-03-26 06:10:00,
2013-03-26 01:15:00,30.7,21.8,30.13,WNW,303,0.0,6.0,69,0.00,,SKC,0.00,VWS V14.01,2013-03-26 06:15:00,
2013-03-26 01:20:00,30.7,21.8,30.13,WNW,303,4.0,6.0,69,0.00,,SKC,0.00,VWS V14.01,2013-03-26 06:20:00,
2013-03-26 01:26:00,30.7,21.8,30.13,WNW,303,4.0,7.0,69,0.00,,SKC,0.00,VWS V14.01,2013-03-26 06:26:00,
2013-03-26 01:30:00,31.3,22.0,30.12,WNW,301,0.0,6.0,68,0.00,,SKC,0.00,VWS V14.01,2013-03-26 06:30:00,
2013-03-26 01:31:00,30.6,21.6,30.13,WNW,303,2.0,7.0,69,0.00,,SKC,0.00,VWS V14.01,2013-03-26 06:31:00,
2013-03-26 01:36:00,30.5,21.9,30.13,NW,304,5.0,7.0,70,0.00,,SKC,0.00,VWS V14.01,2013-03-26 06:36:00,
2013-03-26 01:41:00,30.5,21.9,30.13,NW,304,4.0,6.0,70,0.00,,SKC,0.00,VWS V14.01,2013-03-26 06:41:00,
2013-03-26 01:46:00,30.4,21.8,30.13,NW,304,4.0,8.0,70,0.00,,SKC,0.00,VWS V14.01,2013-03-26 06:46:00,
2013-03-26 01:51:00,30.3,21.7,30.13,NW,304,1.0,8.0,70,0.00,,SKC,0.00,VWS V14.01,2013-03-26 06:51:00,
2013-03-26 01:57:00,30.3,21.7,30.13,NW,304,4.0,8.0,70,0.00,,SKC,0.00,VWS V14.01,2013-03-26 06:57:00,
2013-03-26 02:00:00,30.9,21.9,30.12,WNW,302,5.0,6.0,69,0.00,,SKC,0.00,VWS V14.01,2013-03-26 07:00:00,
2013-03-26 02:02:00,30.3,22.7,30.13,NW,305,2.0,8.0,73,0.00,,SKC,0.00,VWS V14.01,2013-03-26 07:02:00,
2013-03-26 02:07:00,30.4,21.8,30.13,NW,305,2.0,2.0,70,0.00,,SKC,0.00,VWS V14.01,2013-03-26 07:07:00,
2013-03-26 02:12:00,30.3,21.7,30.13,NW,306,2.0,6.0,70,0.00,,SKC,0.00,VWS V14.01,2013-03-26 07:12:00,
2013-03-26 02:17:00,30.3,21.7,30.13,NW,306,2.0,6.0,70,0.00,,SKC,0.00,VWS V14.01,2013-03-26 07:17:00,
2013-03-26 02:22:00,30.2,21.9,30.13,NW,307,2.0,6.0,71,0.00,,SKC,0.00,VWS V14.01,2013-03-26 07:22:00,
2013-03-26 02:28:00,30.1,21.9,30.13,NW,307,2.0,6.0,71,0.00,,SKC,0.00,VWS V14.01,2013-03-26 07:28:00,
2013-03-26 02:30:00,30.5,21.9,30.13,NW,304,5.0,7.0,70,0.00,,SKC,0.00,VWS V14.01,2013-03-26 07:30:00,
2013-03-26 02:33:00,30.1,21.5,30.13,NW,307,4.0,6.0,70,0.00,,SKC,0.00,VWS V14.01,2013-03-26 07:33:00,
2013-03-26 02:38:00,30.1,21.9,30.13,NW,308,4.0,7.0,71,0.00,,SKC,0.00,VWS V14.01,2013-03-26 07:38:00,
2013-03-26 02:43:00,30.1,21.9,30.13,NW,308,5.0,7.0,71,0.00,,SKC,0.00,VWS V14.01,2013-03-26 07:43:00,
2013-03-26 02:48:00,30.1,21.5,30.13,NW,307,5.0,9.0,70,0.00,,SKC,0.00,VWS V14.01,2013-03-26 07:48:00,
2013-03-26 02:54:00,30.0,21.8,30.13,NW,307,1.0,9.0,71,0.00,,SKC,0.00,VWS V14.01,2013-03-26 07:54:00,
2013-03-26 02:59:00,29.9,21.7,30.13,NW,307,2.0,9.0,71,0.00,,SKC,0.00,VWS V14.01,2013-03-26 07:59:00,
2013-03-26 03:00:00,30.4,22.1,30.13,NW,305,0.0,8.0,71,0.00,,SKC,0.00,VWS V14.01,2013-03-26 08:00:00,
2013-03-26 03:04:00,29.9,21.7,30.13,WNW,296,3.0,9.0,71,0.00,,SKC,0.00,VWS V14.01,2013-03-26 08:04:00,
2013-03-26 03:09:00,29.8,21.9,30.13,WNW,296,2.0,6.0,72,0.00,,SKC,0.00,VWS V14.01,2013-03-26 08:09:00,
2013-03-26 03:14:00,29.7,21.5,30.13,WNW,296,0.0,6.0,71,0.00,,SKC,0.00,VWS V14.01,2013-03-26 08:14:00,
2013-03-26 03:19:00,29.7,21.5,30.13,WNW,296,0.0,6.0,71,0.00,,SKC,0.00,VWS V14.01,2013-03-26 08:19:00,
2013-03-26 03:24:00,29.6,21.4,30.13,WNW,297,4.0,8.0,71,0.00,,SKC,0.00,VWS V14.01,2013-03-26 08:24:00,
2013-03-26 03:30:00,29.5,21.3,30.13,WNW,299,2.0,8.0,71,0.00,,SKC,0.00,VWS V14.01,2013-03-26 08:30:00,
2013-03-26 03:35:00,29.5,21.3,30.13,WNW,297,0.0,8.0,71,0.00,,SKC,0.00,VWS V14.01,2013-03-26 08:35:00,
2013-03-26 03:40:00,29.4,21.2,30.13,NW,306,4.0,7.0,71,0.00,,SKC,0.00,VWS V14.01,2013-03-26 08:40:00,
2013-03-26 03:45:00,29.3,21.1,30.13,NW,304,5.0,7.0,71,0.00,,SKC,0.00,VWS V14.01,2013-03-26 08:45:00,
2013-03-26 03:50:00,29.3,21.1,30.14,WNW,303,4.0,7.0,71,0.00,,SKC,0.00,VWS V14.01,2013-03-26 08:50:00,
2013-03-26 03:55:00,29.2,21.0,30.14,NW,304,4.0,7.0,71,0.00,,SKC,0.00,VWS V14.01,2013-03-26 08:55:00,
2013-03-26 04:00:00,29.1,20.9,30.14,NW,304,5.0,7.0,71,0.00,,SKC,0.00,VWS V14.01,2013-03-26 09:00:00,
2013-03-26 04:05:00,29.0,20.8,30.14,NW,304,4.0,7.0,71,0.00,,SKC,0.00,VWS V14.01,2013-03-26 09:05:00,
2013-03-26 04:10:00,29.0,20.8,30.14,NW,305,4.0,7.0,71,0.00,,SKC,0.00,VWS V14.01,2013-03-26 09:10:00,
2013-03-26 04:15:00,29.1,21.2,30.14,NW,306,4.0,7.0,72,0.00,,SKC,0.00,VWS V14.01,2013-03-26 09:15:00,
2013-03-26 04:20:00,29.1,20.9,30.14,NW,309,6.0,8.0,71,0.00,,SKC,0.00,VWS V14.01,2013-03-26 09:20:00,
2013-03-26 04:25:00,29.0,20.8,30.14,WNW,302,4.0,9.0,71,0.00,,SKC,0.00,VWS V14.01,2013-03-26 09:25:00,
2013-03-26 04:30:00,28.9,20.7,30.14,WNW,302,5.0,9.0,71,0.00,,SKC,0.00,VWS V14.01,2013-03-26 09:30:00,
2013-03-26 04:35:00,28.9,20.7,30.14,WNW,302,2.0,9.0,71,0.00,,SKC,0.00,VWS V14.01,2013-03-26 09:35:00,
2013-03-26 04:41:00,28.8,20.6,30.14,WNW,303,3.0,6.0,71,0.00,,SKC,0.00,VWS V14.01,2013-03-26 09:41:00,
2013-03-26 04:46:00,28.8,20.6,30.14,WNW,303,3.0,6.0,71,0.00,,SKC,0.00,VWS V14.01,2013-03-26 09:46:00,
2013-03-26 04:51:00,28.7,20.5,30.14,WNW,303,1.0,6.0,71,0.00,,SKC,0.00,VWS V14.01,2013-03-26 09:51:00,
2013-03-26 04:56:00,28.7,20.5,30.14,WNW,303,4.0,6.0,71,0.00,,SKC,0.00,VWS V14.01,2013-03-26 09:56:00,
2013-03-26 05:00:00,29.1,20.9,30.14,NW,304,7.0,7.0,71,0.00,,SKC,0.00,VWS V14.01,2013-03-26 10:00:00,
2013-03-26 05:02:00,28.7,20.5,30.14,WNW,303,0.0,6.0,71,0.00,,SKC,0.00,VWS V14.01,2013-03-26 10:02:00,
2013-03-26 05:07:00,28.6,20.4,30.15,WNW,303,2.0,5.0,71,0.00,,SKC,0.00,VWS V14.01,2013-03-26 10:07:00,
2013-03-26 05:12:00,28.6,20.4,30.15,WNW,303,0.0,5.0,71,0.00,,SKC,0.00,VWS V14.01,2013-03-26 10:12:00,
2013-03-26 05:17:00,28.5,20.6,30.15,WNW,303,5.0,6.0,72,0.00,,SKC,0.00,VWS V14.01,2013-03-26 10:17:00,
2013-03-26 05:22:00,28.5,20.6,30.15,WNW,303,2.0,6.0,72,0.00,,SKC,0.00,VWS V14.01,2013-03-26 10:22:00,
2013-03-26 05:27:00,28.4,20.2,30.15,WNW,303,5.0,6.0,71,0.00,,SKC,0.00,VWS V14.01,2013-03-26 10:27:00,
2013-03-26 05:30:00,28.9,20.7,30.14,WNW,302,2.0,9.0,71,0.00,,SKC,0.00,VWS V14.01,2013-03-26 10:30:00,
2013-03-26 05:32:00,28.4,20.2,30.15,WNW,303,0.0,6.0,71,0.00,,SKC,0.00,VWS V14.01,2013-03-26 10:32:00,
2013-03-26 05:38:00,28.3,20.1,30.15,WNW,303,0.0,1.0,71,0.00,,SKC,0.00,VWS V14.01,2013-03-26 10:38:00,
2013-03-26 05:43:00,28.2,20.0,30.15,WNW,303,0.0,7.0,71,0.00,,SKC,0.00,VWS V14.01,2013-03-26 10:43:00,
2013-03-26 05:48:00,28.1,20.2,30.15,WNW,303,0.0,7.0,72,0.00,,SKC,0.00,VWS V14.01,2013-03-26 10:48:00,
2013-03-26 05:53:00,28.1,20.2,30.15,WNW,303,0.0,7.0,72,0.00,,SKC,0.00,VWS V14.01,2013-03-26 10:53:00,
2013-03-26 05:58:00,28.1,20.2,30.16,WNW,303,0.0,7.0,72,0.00,,SKC,0.00,VWS V14.01,2013-03-26 10:58:00,
2013-03-26 06:00:00,28.6,20.4,30.14,WNW,303,0.0,6.0,71,0.00,,SKC,0.00,VWS V14.01,2013-03-26 11:00:00,
2013-03-26 06:03:00,28.0,20.2,30.16,WNW,303,0.0,7.0,72,0.00,,SKC,0.00,VWS V14.01,2013-03-26 11:03:00,
2013-03-26 06:08:00,28.0,20.5,30.16,WNW,303,0.0,0.0,73,0.00,,SKC,0.00,VWS V14.01,2013-03-26 11:08:00,
2013-03-26 06:13:00,27.9,20.4,30.16,WNW,303,0.0,1.0,73,0.00,,SKC,0.00,VWS V14.01,2013-03-26 11:13:00,
2013-03-26 06:19:00,27.8,20.3,30.16,WNW,303,1.0,1.0,73,0.00,,SKC,0.00,VWS V14.01,2013-03-26 11:19:00,
2013-03-26 06:24:00,27.8,20.3,30.16,WNW,303,0.0,1.0,73,0.00,,SKC,0.00,VWS V14.01,2013-03-26 11:24:00,
2013-03-26 06:29:00,27.7,20.2,30.16,WNW,303,0.0,1.0,73,0.00,,SKC,0.00,VWS V14.01,2013-03-26 11:29:00,
2013-03-26 06:30:00,28.3,20.1,30.15,WNW,303,1.0,6.0,71,0.00,,SKC,0.00,VWS V14.01,2013-03-26 11:30:00,
2013-03-26 06:34:00,27.6,20.1,30.16,WNW,303,1.0,2.0,73,0.00,,SKC,0.00,VWS V14.01,2013-03-26 11:34:00,
2013-03-26 06:39:00,27.6,20.1,30.16,WNW,303,0.0,1.0,73,0.00,,SKC,0.00,VWS V14.01,2013-03-26 11:39:00,
2013-03-26 06:44:00,27.5,20.0,30.16,WNW,303,0.0,2.0,73,0.00,,SKC,0.00,VWS V14.01,2013-03-26 11:44:00,
2013-03-26 06:49:00,27.5,20.3,30.17,WNW,303,0.0,5.0,74,0.00,,SKC,0.00,VWS V14.01,2013-03-26 11:49:00,
2013-03-26 06:54:00,27.4,20.2,30.17,WNW,303,0.0,5.0,74,0.00,,SKC,0.00,VWS V14.01,2013-03-26 11:54:00,
2013-03-26 06:59:00,27.4,20.2,30.17,WNW,303,0.0,5.0,74,0.00,,SKC,0.00,VWS V14.01,2013-03-26 11:59:00,
2013-03-26 07:00:00,28.0,20.2,30.16,WNW,303,0.0,7.0,72,0.00,,SKC,0.00,VWS V14.01,2013-03-26 12:00:00,
2013-03-26 07:05:00,27.3,20.1,30.17,WNW,303,0.0,5.0,74,0.00,,SKC,0.00,VWS V14.01,2013-03-26 12:05:00,
2013-03-26 07:10:00,27.3,20.1,30.17,WNW,303,1.0,2.0,74,0.00,,SKC,0.00,VWS V14.01,2013-03-26 12:10:00,
2013-03-26 07:15:00,27.3,20.1,30.18,WNW,303,0.0,2.0,74,0.00,,SKC,0.00,VWS V14.01,2013-03-26 12:15:00,
2013-03-26 07:20:00,27.3,20.8,30.18,WNW,303,2.0,4.0,76,0.00,,SKC,0.00,VWS V14.01,2013-03-26 12:20:00,
2013-03-26 07:25:00,27.3,20.4,30.18,WNW,303,0.0,5.0,75,0.00,,SKC,0.00,VWS V14.01,2013-03-26 12:25:00,
2013-03-26 07:30:00,27.3,20.4,30.18,WNW,303,0.0,5.0,75,0.00,,SKC,0.00,VWS V14.01,2013-03-26 12:30:00,
2013-03-26 07:35:00,27.3,20.4,30.18,WNW,303,0.0,5.0,75,0.00,,SKC,0.00,VWS V14.01,2013-03-26 12:35:00,
2013-03-26 07:40:00,27.4,20.5,30.18,WNW,303,1.0,2.0,75,0.00,,SKC,0.00,VWS V14.01,2013-03-26 12:40:00,
2013-03-26 07:45:00,27.4,20.5,30.18,WNW,303,0.0,4.0,75,0.00,,SKC,0.00,VWS V14.01,2013-03-26 12:45:00,
2013-03-26 07:50:00,27.4,20.5,30.18,WNW,303,0.0,4.0,75,0.00,,SKC,0.00,VWS V14.01,2013-03-26 12:50:00,
2013-03-26 07:55:00,27.5,20.6,30.19,WNW,303,0.0,4.0,75,0.00,,SKC,0.00,VWS V14.01,2013-03-26 12:55:00,
2013-03-26 08:00:00,27.6,20.7,30.18,WNW,303,0.0,4.0,75,0.00,,SKC,0.00,VWS V14.01,2013-03-26 13:00:00,
2013-03-26 08:05:00,27.6,20.7,30.19,WNW,303,0.0,4.0,75,0.00,,SKC,0.00,VWS V14.01,2013-03-26 13:05:00,
2013-03-26 08:11:00,27.8,20.9,30.19,WNW,303,0.0,2.0,75,0.00,,SKC,0.00,VWS V14.01,2013-03-26 13:11:00,
2013-03-26 08:16:00,27.9,21.0,30.19,WNW,303,0.0,2.0,75,0.00,,SKC,0.00,VWS V14.01,2013-03-26 13:16:00,
2013-03-26 08:21:00,28.1,21.2,30.19,WNW,303,0.0,3.0,75,0.00,,SKC,0.00,VWS V14.01,2013-03-26 13:21:00,
2013-03-26 08:26:00,28.2,21.0,30.19,WNW,303,0.0,4.0,74,0.00,,SKC,0.00,VWS V14.01,2013-03-26 13:26:00,
2013-03-26 08:30:00,27.3,20.4,30.18,WNW,303,0.0,5.0,75,0.00,,SKC,0.00,VWS V14.01,2013-03-26 13:30:00,
2013-03-26 08:31:00,28.3,21.1,30.19,WNW,303,0.0,5.0,74,0.00,,SKC,0.00,VWS V14.01,2013-03-26 13:31:00,
2013-03-26 08:36:00,28.5,21.3,30.19,WNW,303,0.0,0.0,74,0.00,,SKC,0.00,VWS V14.01,2013-03-26 13:36:00,
2013-03-26 08:41:00,28.6,21.4,30.19,WNW,303,0.0,1.0,74,0.00,,SKC,0.00,VWS V14.01,2013-03-26 13:41:00,
2013-03-26 08:46:00,28.8,21.6,30.19,WNW,303,0.0,1.0,74,0.00,,SKC,0.00,VWS V14.01,2013-03-26 13:46:00,
2013-03-26 08:51:00,28.9,21.4,30.19,WNW,303,0.0,3.0,73,0.00,,SKC,0.00,VWS V14.01,2013-03-26 13:51:00,
2013-03-26 08:56:00,29.1,21.5,30.19,WNW,303,0.0,5.0,73,0.00,,SKC,0.00,VWS V14.01,2013-03-26 13:56:00,
2013-03-26 09:00:00,27.6,20.7,30.19,WNW,303,0.0,4.0,75,0.00,,SKC,0.00,VWS V14.01,2013-03-26 14:00:00,
2013-03-26 09:02:00,29.4,21.8,30.19,WNW,303,0.0,5.0,73,0.00,,SKC,0.00,VWS V14.01,2013-03-26 14:02:00,
2013-03-26 09:07:00,29.6,22.0,30.19,WNW,303,0.0,5.0,73,0.00,,SKC,0.00,VWS V14.01,2013-03-26 14:07:00,
2013-03-26 09:12:00,29.8,21.9,30.19,WNW,303,0.0,5.0,72,0.00,,SKC,0.00,VWS V14.01,2013-03-26 14:12:00,
2013-03-26 09:17:00,30.0,22.1,30.19,WNW,303,0.0,6.0,72,0.00,,SKC,0.00,VWS V14.01,2013-03-26 14:17:00,
2013-03-26 09:22:00,30.2,22.6,30.19,WNW,303,4.0,6.0,73,0.00,,SKC,0.00,VWS V14.01,2013-03-26 14:22:00,
2013-03-26 09:27:00,30.5,22.2,30.20,WNW,303,0.0,6.0,71,0.00,,SKC,0.00,VWS V14.01,2013-03-26 14:27:00,
2013-03-26 09:30:00,28.5,21.6,30.19,WNW,303,0.0,5.0,75,0.00,,SKC,0.00,VWS V14.01,2013-03-26 14:30:00,
2013-03-26 09:33:00,30.8,22.5,30.20,WNW,303,0.0,6.0,71,0.00,,SKC,0.00,VWS V14.01,2013-03-26 14:33:00,
2013-03-26 09:38:00,31.0,22.7,30.20,WNW,303,0.0,5.0,71,0.00,,SKC,0.00,VWS V14.01,2013-03-26 14:38:00,
2013-03-26 09:44:00,31.2,23.2,30.20,WNW,303,0.0,5.0,72,0.00,,SKC,0.00,VWS V14.01,2013-03-26 14:44:00,
2013-03-26 09:49:00,31.5,23.2,30.20,WNW,303,5.0,5.0,71,0.00,,SKC,0.00,VWS V14.01,2013-03-26 14:49:00,
2013-03-26 09:54:00,31.7,23.0,30.20,WNW,303,1.0,6.0,70,0.00,,SKC,0.00,VWS V14.01,2013-03-26 14:54:00,
2013-03-26 09:59:00,32.0,23.3,30.20,WNW,303,3.0,6.0,70,0.00,,SKC,0.00,VWS V14.01,2013-03-26 14:59:00,
2013-03-26 10:00:00,29.6,21.7,30.19,WNW,303,5.0,5.0,72,0.00,,SKC,0.00,VWS V14.01,2013-03-26 15:00:00,
2013-03-26 10:04:00,32.1,23.1,30.20,WNW,303,3.0,6.0,69,0.00,,SKC,0.00,VWS V14.01,2013-03-26 15:04:00,
2013-03-26 10:09:00,32.5,23.1,30.20,WNW,303,5.0,5.0,68,0.00,,SKC,0.00,VWS V14.01,2013-03-26 15:09:00,
2013-03-26 10:14:00,32.8,23.1,30.20,WNW,303,5.0,5.0,67,0.00,,SKC,0.00,VWS V14.01,2013-03-26 15:14:00,
2013-03-26 10:19:00,33.2,23.5,30.20,WNW,303,0.0,5.0,67,0.00,,SKC,0.00,VWS V14.01,2013-03-26 15:19:00,
2013-03-26 10:24:00,33.6,24.2,30.20,WNW,303,0.0,5.0,68,0.00,,SKC,0.00,VWS V14.01,2013-03-26 15:24:00,
2013-03-26 10:29:00,34.1,24.7,30.20,NNW,327,1.0,7.0,68,0.00,,SKC,0.00,VWS V14.01,2013-03-26 15:29:00,
2013-03-26 10:30:00,30.9,23.0,30.20,WNW,303,2.0,6.0,72,0.00,,SKC,0.00,VWS V14.01,2013-03-26 15:30:00,
2013-03-26 10:34:00,34.4,23.9,30.20,NNW,334,1.0,7.0,65,0.00,,SKC,0.00,VWS V14.01,2013-03-26 15:34:00,
2013-03-26 10:39:00,34.7,24.5,30.20,NNW,334,2.0,5.0,66,0.00,,SKC,0.00,VWS V14.01,2013-03-26 15:39:00,
2013-03-26 10:44:00,35.1,24.9,30.20,NNW,334,0.0,5.0,66,0.00,,SKC,0.00,VWS V14.01,2013-03-26 15:44:00,
2013-03-26 10:49:00,35.6,25.4,30.20,NNW,334,1.0,5.0,66,0.00,,SKC,0.00,VWS V14.01,2013-03-26 15:49:00,
2013-03-26 10:55:00,35.9,24.9,30.20,NNW,334,1.0,5.0,64,0.00,,SKC,0.00,VWS V14.01,2013-03-26 15:55:00,
2013-03-26 11:00:00,36.1,25.1,30.20,NNW,334,0.0,5.0,64,0.00,,SKC,0.00,VWS V14.01,2013-03-26 16:00:00,
2013-03-26 11:05:00,36.6,25.6,30.19,NNW,334,0.0,5.0,64,0.00,,SKC,0.00,VWS V14.01,2013-03-26 16:05:00,
2013-03-26 11:10:00,36.4,24.6,30.19,NNW,334,0.0,1.0,62,0.00,,SKC,0.00,VWS V14.01,2013-03-26 16:10:00,
2013-03-26 11:15:00,36.4,25.8,30.19,NNW,334,0.0,1.0,65,0.00,,SKC,0.00,VWS V14.01,2013-03-26 16:15:00,
2013-03-26 11:20:00,36.8,25.8,30.20,NNW,334,1.0,4.0,64,0.00,,SKC,0.00,VWS V14.01,2013-03-26 16:20:00,
2013-03-26 11:25:00,37.3,25.9,30.20,NNW,334,4.0,4.0,63,0.00,,SKC,0.00,VWS V14.01,2013-03-26 16:25:00,
2013-03-26 11:30:00,37.7,25.5,30.19,NNW,334,0.0,5.0,61,0.00,,SKC,0.00,VWS V14.01,2013-03-26 16:30:00,
2013-03-26 11:35:00,38.3,25.6,30.19,NNW,334,2.0,5.0,60,0.00,,SKC,0.00,VWS V14.01,2013-03-26 16:35:00,
2013-03-26 11:40:00,38.8,25.7,30.20,NNW,334,0.0,5.0,59,0.00,,SKC,0.00,VWS V14.01,2013-03-26 16:40:00,
2013-03-26 11:46:00,39.3,26.2,30.19,NNW,334,3.0,5.0,59,0.00,,SKC,0.00,VWS V14.01,2013-03-26 16:46:00,
2013-03-26 11:51:00,40.1,26.1,30.19,NNW,334,0.0,5.0,57,0.00,,SKC,0.00,VWS V14.01,2013-03-26 16:51:00,
2013-03-26 11:57:00,41.1,27.0,30.19,NNW,334,0.0,5.0,57,0.00,,SKC,0.00,VWS V14.01,2013-03-26 16:57:00,
2013-03-26 12:00:00,36.6,26.0,30.19,NNW,334,0.0,5.0,65,0.00,,SKC,0.00,VWS V14.01,2013-03-26 17:00:00,
2013-03-26 12:02:00,41.5,27.0,30.19,NNW,334,0.0,5.0,56,0.00,,SKC,0.00,VWS V14.01,2013-03-26 17:02:00,
2013-03-26 12:07:00,41.9,26.5,30.19,NNW,334,0.0,1.0,54,0.00,,SKC,0.00,VWS V14.01,2013-03-26 17:07:00,
2013-03-26 12:12:00,42.2,27.2,30.19,NNW,334,0.0,3.0,55,0.00,,SKC,0.00,VWS V14.01,2013-03-26 17:12:00,
2013-03-26 12:17:00,42.8,27.3,30.18,NNW,334,0.0,3.0,54,0.00,,SKC,0.00,VWS V14.01,2013-03-26 17:17:00,
2013-03-26 12:23:00,43.7,26.8,30.18,NNW,334,2.0,3.0,51,0.00,,SKC,0.00,VWS V14.01,2013-03-26 17:23:00,
2013-03-26 12:28:00,43.9,26.5,30.18,NNW,334,0.0,3.0,50,0.00,,SKC,0.00,VWS V14.01,2013-03-26 17:28:00,
2013-03-26 12:30:00,38.4,25.7,30.19,NNW,334,0.0,5.0,60,0.00,,SKC,0.00,VWS V14.01,2013-03-26 17:30:00,
2013-03-26 12:33:00,44.2,27.7,30.18,NNW,334,0.0,3.0,52,0.00,,SKC,0.00,VWS V14.01,2013-03-26 17:33:00,
2013-03-26 12:38:00,44.3,27.3,30.18,NNW,334,0.0,1.0,51,0.00,,SKC,0.00,VWS V14.01,2013-03-26 17:38:00,
2013-03-26 12:43:00,43.9,26.5,30.18,NNW,334,0.0,5.0,50,0.00,,SKC,0.00,VWS V14.01,2013-03-26 17:43:00,
2013-03-26 12:49:00,42.3,25.9,30.18,WNW,298,0.0,8.0,52,0.00,,SKC,0.00,VWS V14.01,2013-03-26 17:49:00,
2013-03-26 12:54:00,41.6,25.8,30.18,WNW,298,0.0,8.0,53,0.00,,SKC,0.00,VWS V14.01,2013-03-26 17:54:00,
2013-03-26 12:59:00,41.2,24.9,30.18,WNW,298,0.0,8.0,52,0.00,,SKC,0.00,VWS V14.01,2013-03-26 17:59:00,
2013-03-26 13:00:00,41.8,26.8,30.19,NNW,334,0.0,5.0,55,0.00,,SKC,0.00,VWS V14.01,2013-03-26 18:00:00,
2013-03-26 13:04:00,40.9,25.5,30.18,WNW,298,2.0,8.0,54,0.00,,SKC,0.00,VWS V14.01,2013-03-26 18:04:00,
2013-03-26 13:09:00,40.7,24.5,30.18,WNW,298,0.0,0.0,52,0.00,,SKC,0.00,VWS V14.01,2013-03-26 18:09:00,
2013-03-26 13:14:00,40.6,25.3,30.18,WNW,298,0.0,2.0,54,0.00,,SKC,0.00,VWS V14.01,2013-03-26 18:14:00,
2013-03-26 13:19:00,40.6,25.3,30.18,WNW,298,0.0,2.0,54,0.00,,SKC,0.00,VWS V14.01,2013-03-26 18:19:00,
2013-03-26 13:24:00,40.5,25.6,30.18,WNW,298,0.0,4.0,55,0.00,,SKC,0.00,VWS V14.01,2013-03-26 18:24:00,
2013-03-26 13:29:00,41.2,25.8,30.18,WNW,300,1.0,4.0,54,0.00,,SKC,0.00,VWS V14.01,2013-03-26 18:29:00,
2013-03-26 13:30:00,44.2,27.2,30.18,NNW,334,0.0,3.0,51,0.00,,SKC,0.00,VWS V14.01,2013-03-26 18:30:00,
2013-03-26 13:34:00,42.4,27.4,30.18,NNW,344,1.0,5.0,55,0.00,,SKC,0.00,VWS V14.01,2013-03-26 18:34:00,
2013-03-26 13:40:00,43.5,27.5,30.18,NNW,344,2.0,5.0,53,0.00,,SKC,0.00,VWS V14.01,2013-03-26 18:40:00,
2013-03-26 13:45:00,44.1,28.1,30.17,NNW,344,2.0,5.0,53,0.00,,SKC,0.00,VWS V14.01,2013-03-26 18:45:00,
2013-03-26 13:50:00,44.3,26.9,30.17,North,350,1.0,5.0,50,0.00,,SKC,0.00,VWS V14.01,2013-03-26 18:50:00,
2013-03-26 13:55:00,44.6,27.1,30.17,North,350,0.0,5.0,50,0.00,,SKC,0.00,VWS V14.01,2013-03-26 18:55:00,
2013-03-26 14:00:00,45.4,26.9,30.17,NNE,15,4.0,5.0,48,0.00,,SKC,0.00,VWS V14.01,2013-03-26 19:00:00,
2013-03-26 14:05:00,46.1,27.0,30.17,ENE,59,6.0,6.0,47,0.00,,SKC,0.00,VWS V14.01,2013-03-26 19:05:00,
2013-03-26 14:11:00,46.3,27.7,30.17,East,91,5.0,6.0,48,0.00,,SKC,0.00,VWS V14.01,2013-03-26 19:11:00,
2013-03-26 14:17:00,46.3,26.7,30.17,East,94,0.0,6.0,46,0.00,,SKC,0.00,VWS V14.01,2013-03-26 19:17:00,
2013-03-26 14:22:00,46.5,25.8,30.16,East,94,3.0,6.0,44,0.00,,SKC,0.00,VWS V14.01,2013-03-26 19:22:00,
2013-03-26 14:28:00,45.2,24.6,30.16,East,94,0.0,6.0,44,0.00,,SKC,0.00,VWS V14.01,2013-03-26 19:28:00,
2013-03-26 14:30:00,42.7,27.7,30.17,NNW,344,5.0,5.0,55,0.00,,SKC,0.00,VWS V14.01,2013-03-26 19:30:00,
2013-03-26 14:33:00,42.2,22.9,30.16,East,94,0.0,6.0,46,0.00,,SKC,0.00,VWS V14.01,2013-03-26 19:33:00,
2013-03-26 14:38:00,40.8,24.1,30.17,East,94,0.0,4.0,51,0.00,,SKC,0.00,VWS V14.01,2013-03-26 19:38:00,
2013-03-26 14:43:00,41.1,22.9,30.17,East,94,4.0,5.0,48,0.00,,SKC,0.00,VWS V14.01,2013-03-26 19:43:00,
2013-03-26 14:49:00,41.7,24.9,30.16,East,94,0.0,5.0,51,0.00,,SKC,0.00,VWS V14.01,2013-03-26 19:49:00,
2013-03-26 14:54:00,42.4,26.5,30.17,East,95,0.0,5.0,53,0.00,,SKC,0.00,VWS V14.01,2013-03-26 19:54:00,
2013-03-26 14:59:00,42.7,24.4,30.17,East,95,0.0,5.0,48,0.00,,SKC,0.00,VWS V14.01,2013-03-26 19:59:00,
2013-03-26 15:00:00,46.1,27.0,30.17,ENE,68,6.0,6.0,47,0.00,,SKC,0.00,VWS V14.01,2013-03-26 20:00:00,
2013-03-26 15:04:00,42.8,25.9,30.17,East,94,0.0,5.0,51,0.00,,SKC,0.00,VWS V14.01,2013-03-26 20:04:00,
2013-03-26 15:09:00,42.5,23.7,30.17,East,94,0.0,0.0,47,0.00,,SKC,0.00,VWS V14.01,2013-03-26 20:09:00,
2013-03-26 15:14:00,42.4,24.1,30.17,East,81,2.0,5.0,48,0.00,,SKC,0.00,VWS V14.01,2013-03-26 20:14:00,
2013-03-26 15:19:00,41.6,23.9,30.17,West,259,2.0,7.0,49,0.00,,SKC,0.00,VWS V14.01,2013-03-26 20:19:00,
2013-03-26 15:24:00,40.9,23.7,30.17,West,275,1.0,7.0,50,0.00,,SKC,0.00,VWS V14.01,2013-03-26 20:24:00,
2013-03-26 15:30:00,40.4,23.7,30.17,WNW,287,5.0,8.0,51,0.00,,SKC,0.00,VWS V14.01,2013-03-26 20:30:00,
2013-03-26 15:35:00,39.9,23.7,30.17,WNW,296,0.0,8.0,52,0.00,,SKC,0.00,VWS V14.01,2013-03-26 20:35:00,
2013-03-26 15:40:00,39.6,23.9,30.17,WNW,296,5.0,5.0,53,0.00,,SKC,0.00,VWS V14.01,2013-03-26 20:40:00,
2013-03-26 15:45:00,39.4,23.7,30.17,WNW,297,1.0,6.0,53,0.00,,SKC,0.00,VWS V14.01,2013-03-26 20:45:00,
2013-03-26 15:50:00,39.1,23.9,30.17,WNW,297,1.0,6.0,54,0.00,,SKC,0.00,VWS V14.01,2013-03-26 20:50:00,
2013-03-26 15:55:00,39.0,24.2,30.17,WNW,297,0.0,6.0,55,0.00,,SKC,0.00,VWS V14.01,2013-03-26 20:55:00,
2013-03-26 16:00:00,38.8,23.1,30.16,WNW,297,0.0,6.0,53,0.00,,SKC,0.00,VWS V14.01,2013-03-26 21:00:00,
2013-03-26 16:05:00,38.9,24.1,30.17,WNW,297,0.0,6.0,55,0.00,,SKC,0.00,VWS V14.01,2013-03-26 21:05:00,
2013-03-26 16:10:00,39.1,23.9,30.17,WNW,299,1.0,7.0,54,0.00,,SKC,0.00,VWS V14.01,2013-03-26 21:10:00,
2013-03-26 16:16:00,39.0,23.3,30.17,WNW,299,0.0,7.0,53,0.00,,SKC,0.00,VWS V14.01,2013-03-26 21:16:00,
2013-03-26 16:21:00,39.0,23.3,30.17,WNW,299,1.0,7.0,53,0.00,,SKC,0.00,VWS V14.01,2013-03-26 21:21:00,
2013-03-26 16:26:00,39.1,23.0,30.16,WNW,299,0.0,7.0,52,0.00,,SKC,0.00,VWS V14.01,2013-03-26 21:26:00,
2013-03-26 16:30:00,39.8,24.1,30.17,WNW,296,2.0,8.0,53,0.00,,SKC,0.00,VWS V14.01,2013-03-26 21:30:00,
2013-03-26 16:32:00,39.4,22.8,30.16,WNW,299,0.0,7.0,51,0.00,,SKC,0.00,VWS V14.01,2013-03-26 21:32:00,
2013-03-26 16:37:00,39.6,23.0,30.16,WNW,299,0.0,0.0,51,0.00,,SKC,0.00,VWS V14.01,2013-03-26 21:37:00,
2013-03-26 16:42:00,39.6,23.9,30.16,WNW,299,0.0,4.0,53,0.00,,SKC,0.00,VWS V14.01,2013-03-26 21:42:00,
2013-03-26 16:48:00,39.3,23.2,30.16,WNW,299,2.0,4.0,52,0.00,,SKC,0.00,VWS V14.01,2013-03-26 21:48:00,
2013-03-26 16:53:00,39.0,22.9,30.16,WNW,299,0.0,4.0,52,0.00,,SKC,0.00,VWS V14.01,2013-03-26 21:53:00,
2013-03-26 16:58:00,38.6,22.5,30.16,WNW,299,1.0,4.0,52,0.00,,SKC,0.00,VWS V14.01,2013-03-26 21:58:00,
2013-03-26 17:00:00,38.9,24.1,30.17,WNW,297,0.0,6.0,55,0.00,,SKC,0.00,VWS V14.01,2013-03-26 22:00:00,
2013-03-26 17:03:00,38.6,22.5,30.16,WNW,299,1.0,4.0,52,0.00,,SKC,0.00,VWS V14.01,2013-03-26 22:03:00,
2013-03-26 17:08:00,38.7,23.1,30.17,WNW,299,2.0,6.0,53,0.00,,SKC,0.00,VWS V14.01,2013-03-26 22:08:00,
2013-03-26 17:14:00,38.7,22.6,30.16,WNW,299,0.0,6.0,52,0.00,,SKC,0.00,VWS V14.01,2013-03-26 22:14:00,
2013-03-26 17:19:00,38.7,23.1,30.16,WNW,299,0.0,6.0,53,0.00,,SKC,0.00,VWS V14.01,2013-03-26 22:19:00,
2013-03-26 17:24:00,38.7,23.9,30.17,WNW,299,4.0,6.0,55,0.00,,SKC,0.00,VWS V14.01,2013-03-26 22:24:00,
2013-03-26 17:30:00,38.7,23.5,30.17,WNW,299,1.0,7.0,54,0.00,,SKC,0.00,VWS V14.01,2013-03-26 22:30:00,
2013-03-26 17:35:00,38.7,23.1,30.16,WNW,299,0.0,7.0,53,0.00,,SKC,0.00,VWS V14.01,2013-03-26 22:35:00,
2013-03-26 17:40:00,38.8,23.6,30.16,WNW,300,2.0,6.0,54,0.00,,SKC,0.00,VWS V14.01,2013-03-26 22:40:00,
2013-03-26 17:45:00,38.7,23.5,30.17,WNW,300,5.0,6.0,54,0.00,,SKC,0.00,VWS V14.01,2013-03-26 22:45:00,
2013-03-26 17:50:00,38.6,23.4,30.17,WNW,302,4.0,7.0,54,0.00,,SKC,0.00,VWS V14.01,2013-03-26 22:50:00,
2013-03-26 17:56:00,38.5,23.3,30.17,WNW,302,2.0,7.0,54,0.00,,SKC,0.00,VWS V14.01,2013-03-26 22:56:00,
2013-03-26 18:00:00,38.6,23.0,30.16,WNW,299,4.0,4.0,53,0.00,,SKC,0.00,VWS V14.01,2013-03-26 23:00:00,
2013-03-26 18:02:00,38.3,23.1,30.17,WNW,302,2.0,7.0,54,0.00,,SKC,0.00,VWS V14.01,2013-03-26 23:02:00,
2013-03-26 18:07:00,38.2,23.0,30.17,WNW,302,1.0,4.0,54,0.00,,SKC,0.00,VWS V14.01,2013-03-26 23:07:00,
2013-03-26 18:12:00,38.2,23.5,30.17,WNW,302,0.0,4.0,55,0.00,,SKC,0.00,VWS V14.01,2013-03-26 23:12:00,
2013-03-26 18:18:00,38.1,22.9,30.17,WNW,302,0.0,5.0,54,0.00,,SKC,0.00,VWS V14.01,2013-03-26 23:18:00,
2013-03-26 18:23:00,38.0,22.9,30.17,WNW,302,1.0,5.0,54,0.00,,SKC,0.00,VWS V14.01,2013-03-26 23:23:00,
2013-03-26 18:28:00,37.9,22.8,30.17,WNW,302,2.0,5.0,54,0.00,,SKC,0.00,VWS V14.01,2013-03-26 23:28:00,
2013-03-26 18:30:00,38.8,23.1,30.16,WNW,299,1.0,7.0,53,0.00,,SKC,0.00,VWS V14.01,2013-03-26 23:30:00,
2013-03-26 18:33:00,37.7,22.6,30.17,WNW,302,2.0,5.0,54,0.00,,SKC,0.00,VWS V14.01,2013-03-26 23:33:00,
2013-03-26 18:38:00,37.5,22.8,30.17,WNW,302,0.0,2.0,55,0.00,,SKC,0.00,VWS V14.01,2013-03-26 23:38:00,
2013-03-26 18:43:00,37.3,22.6,30.17,WNW,302,0.0,2.0,55,0.00,,SKC,0.00,VWS V14.01,2013-03-26 23:43:00,
2013-03-26 18:49:00,37.1,22.0,30.17,WNW,302,0.0,2.0,54,0.00,,SKC,0.00,VWS V14.01,2013-03-26 23:49:00,
2013-03-26 18:54:00,37.0,23.2,30.17,WNW,302,0.0,2.0,57,0.00,,SKC,0.00,VWS V14.01,2013-03-26 23:54:00,
2013-03-26 18:59:00,36.8,24.2,30.17,WNW,302,0.0,2.0,60,0.00,,SKC,0.00,VWS V14.01,2013-03-26 23:59:00,
2013-03-26 19:00:00,38.2,23.5,30.17,WNW,302,2.0,7.0,55,0.00,,SKC,0.00,VWS V14.01,2013-03-27 00:00:00,
2013-03-26 19:04:00,36.2,23.7,30.18,WNW,302,1.0,4.0,60,0.00,,SKC,0.00,VWS V14.01,2013-03-27 00:04:00,
2013-03-26 19:09:00,35.8,23.3,30.17,WNW,302,0.0,0.0,60,0.00,,SKC,0.00,VWS V14.01,2013-03-27 00:09:00,
2013-03-26 19:14:00,35.4,23.7,30.17,WNW,302,0.0,0.0,62,0.00,,SKC,0.00,VWS V14.01,2013-03-27 00:14:00,
2013-03-26 19:20:00,35.1,23.0,30.17,WNW,302,0.0,5.0,61,0.00,,SKC,0.00,VWS V14.01,2013-03-27 00:20:00,
2013-03-26 19:25:00,35.0,23.3,30.18,WNW,302,0.0,5.0,62,0.00,,SKC,0.00,VWS V14.01,2013-03-27 00:25:00,
2013-03-26 19:30:00,34.8,23.1,30.18,WNW,302,0.0,5.0,62,0.00,,SKC,0.00,VWS V14.01,2013-03-27 00:30:00,
2013-03-26 19:35:00,34.7,23.0,30.18,WNW,302,0.0,5.0,62,0.00,,SKC,0.00,VWS V14.01,2013-03-27 00:35:00,
2013-03-26 19:41:00,34.4,23.1,30.17,WNW,302,0.0,0.0,63,0.00,,SKC,0.00,VWS V14.01,2013-03-27 00:41:00,
2013-03-26 19:46:00,34.4,23.5,30.18,WNW,302,0.0,0.0,64,0.00,,SKC,0.00,VWS V14.01,2013-03-27 00:46:00,
2013-03-26 19:51:00,34.4,23.5,30.18,WNW,302,0.0,2.0,64,0.00,,SKC,0.00,VWS V14.01,2013-03-27 00:51:00,
2013-03-26 19:56:00,34.2,23.3,30.18,WNW,302,0.0,2.0,64,0.00,,SKC,0.00,VWS V14.01,2013-03-27 00:56:00,
2013-03-26 20:00:00,36.1,23.6,30.18,WNW,302,0.0,4.0,60,0.00,,SKC,0.00,VWS V14.01,2013-03-27 01:00:00,
2013-03-26 20:01:00,34.1,23.2,30.18,WNW,302,0.0,2.0,64,0.00,,SKC,0.00,VWS V14.01,2013-03-27 01:01:00,
2013-03-26 20:07:00,33.8,23.7,30.18,WNW,302,0.0,0.0,66,0.00,,SKC,0.00,VWS V14.01,2013-03-27 01:07:00,
2013-03-26 20:12:00,33.6,23.5,30.18,WNW,302,0.0,0.0,66,0.00,,SKC,0.00,VWS V14.01,2013-03-27 01:12:00,
2013-03-26 20:17:00,33.5,22.6,30.18,WNW,302,0.0,0.0,64,0.00,,SKC,0.00,VWS V14.01,2013-03-27 01:17:00,
2013-03-26 20:22:00,33.5,22.6,30.18,WNW,302,0.0,0.0,64,0.00,,SKC,0.00,VWS V14.01,2013-03-27 01:22:00,
2013-03-26 20:28:00,33.5,23.4,30.18,WNW,302,0.0,0.0,66,0.00,,SKC,0.00,VWS V14.01,2013-03-27 01:28:00,
2013-03-26 20:30:00,34.7,23.0,30.18,WNW,302,0.0,5.0,62,0.00,,SKC,0.00,VWS V14.01,2013-03-27 01:30:00,
2013-03-26 20:33:00,33.5,23.0,30.18,WNW,302,0.0,0.0,65,0.00,,SKC,0.00,VWS V14.01,2013-03-27 01:33:00,
2013-03-26 20:38:00,33.5,22.6,30.18,WNW,302,0.0,0.0,64,0.00,,SKC,0.00,VWS V14.01,2013-03-27 01:38:00,
2013-03-26 20:43:00,33.4,22.5,30.18,WNW,302,0.0,1.0,64,0.00,,SKC,0.00,VWS V14.01,2013-03-27 01:43:00,
2013-03-26 20:48:00,33.4,22.9,30.19,WNW,302,0.0,1.0,65,0.00,,SKC,0.00,VWS V14.01,2013-03-27 01:48:00,
2013-03-26 20:53:00,33.4,22.2,30.19,WNW,302,0.0,1.0,63,0.00,,SKC,0.00,VWS V14.01,2013-03-27 01:53:00,
2013-03-26 20:58:00,33.4,22.5,30.19,WNW,302,0.0,1.0,64,0.00,,SKC,0.00,VWS V14.01,2013-03-27 01:58:00,
2013-03-26 21:00:00,33.9,23.4,30.18,WNW,302,0.0,2.0,65,0.00,,SKC,0.00,VWS V14.01,2013-03-27 02:00:00,
2013-03-26 21:03:00,33.4,22.5,30.19,WNW,302,0.0,1.0,64,0.00,,SKC,0.00,VWS V14.01,2013-03-27 02:03:00,
2013-03-26 21:08:00,33.4,22.5,30.19,WNW,302,0.0,0.0,64,0.00,,SKC,0.00,VWS V14.01,2013-03-27 02:08:00,
2013-03-26 21:13:00,33.4,22.5,30.19,WNW,302,0.0,0.0,64,0.00,,SKC,0.00,VWS V14.01,2013-03-27 02:13:00,
2013-03-26 21:18:00,33.3,22.1,30.19,WNW,302,0.0,0.0,63,0.00,,SKC,0.00,VWS V14.01,2013-03-27 02:18:00,
2013-03-26 21:23:00,33.4,24.3,30.19,WNW,302,0.0,0.0,69,0.00,,SKC,0.00,VWS V14.01,2013-03-27 02:23:00,
2013-03-26 21:28:00,33.4,22.9,30.19,WNW,302,0.0,0.0,65,0.00,,SKC,0.00,VWS V14.01,2013-03-27 02:28:00,
2013-03-26 21:30:00,33.4,22.5,30.18,WNW,302,0.0,0.0,64,0.00,,SKC,0.00,VWS V14.01,2013-03-27 02:30:00,
2013-03-26 21:34:00,33.4,23.3,30.19,WNW,302,0.0,0.0,66,0.00,,SKC,0.00,VWS V14.01,2013-03-27 02:34:00,
2013-03-26 21:39:00,33.3,22.5,30.19,WNW,302,0.0,0.0,64,0.00,,SKC,0.00,VWS V14.01,2013-03-27 02:39:00,
2013-03-26 21:44:00,33.3,22.8,30.19,WNW,302,0.0,0.0,65,0.00,,SKC,0.00,VWS V14.01,2013-03-27 02:44:00,
2013-03-26 21:49:00,33.2,22.7,30.19,WNW,302,0.0,0.0,65,0.00,,SKC,0.00,VWS V14.01,2013-03-27 02:49:00,
2013-03-26 21:54:00,33.1,22.6,30.19,WNW,302,0.0,0.0,65,0.00,,SKC,0.00,VWS V14.01,2013-03-27 02:54:00,
2013-03-26 21:59:00,33.0,22.2,30.19,WNW,302,0.0,0.0,64,0.00,,SKC,0.00,VWS V14.01,2013-03-27 02:59:00,
2013-03-26 22:00:00,33.4,22.5,30.19,WNW,302,0.0,1.0,64,0.00,,SKC,0.00,VWS V14.01,2013-03-27 03:00:00,
2013-03-26 22:04:00,33.0,21.8,30.19,WNW,302,0.0,0.0,63,0.00,,SKC,0.00,VWS V14.01,2013-03-27 03:04:00,
2013-03-26 22:09:00,32.9,21.3,30.19,WNW,302,0.0,0.0,62,0.00,,SKC,0.00,VWS V14.01,2013-03-27 03:09:00,
2013-03-26 22:14:00,32.8,21.6,30.19,WNW,302,0.0,0.0,63,0.00,,SKC,0.00,VWS V14.01,2013-03-27 03:14:00,
2013-03-26 22:20:00,32.8,22.3,30.18,WNW,302,0.0,0.0,65,0.00,,SKC,0.00,VWS V14.01,2013-03-27 03:20:00,
2013-03-26 22:25:00,32.7,21.9,30.19,WNW,302,0.0,0.0,64,0.00,,SKC,0.00,VWS V14.01,2013-03-27 03:25:00,
2013-03-26 22:30:00,32.6,21.8,30.19,WNW,302,0.0,0.0,64,0.00,,SKC,0.00,VWS V14.01,2013-03-27 03:30:00,
2013-03-26 22:35:00,32.6,21.4,30.19,WNW,302,0.0,0.0,63,0.00,,SKC,0.00,VWS V14.01,2013-03-27 03:35:00,
2013-03-26 22:40:00,32.6,21.0,30.19,WNW,302,0.0,0.0,62,0.00,,SKC,0.00,VWS V14.01,2013-03-27 03:40:00,
2013-03-26 22:45:00,32.6,21.4,30.19,WNW,302,0.0,0.0,63,0.00,,SKC,0.00,VWS V14.01,2013-03-27 03:45:00,
2013-03-26 22:50:00,32.6,21.4,30.19,WNW,302,0.0,0.0,63,0.00,,SKC,0.00,VWS V14.01,2013-03-27 03:50:00,
2013-03-26 22:55:00,32.7,21.5,30.19,WNW,302,0.0,0.0,63,0.00,,SKC,0.00,VWS V14.01,2013-03-27 03:55:00,
2013-03-26 23:00:00,32.7,21.9,30.19,WNW,302,0.0,0.0,64,0.00,,SKC,0.00,VWS V14.01,2013-03-27 04:00:00,
2013-03-26 23:01:00,32.7,21.9,30.19,WNW,302,0.0,0.0,64,0.00,,SKC,0.00,VWS V14.01,2013-03-27 04:01:00,
2013-03-26 23:02:00,32.7,21.9,30.19,WNW,302,0.0,0.0,64,0.00,,SKC,0.00,VWS V14.01,2013-03-27 04:02:00,
2013-03-26 23:06:00,32.7,21.5,30.19,WNW,302,0.0,0.0,63,0.00,,SKC,0.00,VWS V14.01,2013-03-27 04:06:00,
2013-03-26 23:11:00,32.6,21.4,30.19,WNW,302,0.0,0.0,63,0.00,,SKC,0.00,VWS V14.01,2013-03-27 04:11:00,
2013-03-26 23:17:00,32.6,21.4,30.19,WNW,302,0.0,0.0,63,0.00,,SKC,0.00,VWS V14.01,2013-03-27 04:17:00,
2013-03-26 23:22:00,32.7,21.9,30.19,WNW,302,0.0,0.0,64,0.00,,SKC,0.00,VWS V14.01,2013-03-27 04:22:00,
2013-03-26 23:28:00,32.6,22.5,30.19,WNW,302,0.0,0.0,66,0.00,,SKC,0.00,VWS V14.01,2013-03-27 04:28:00,
2013-03-26 23:30:00,32.6,21.4,30.19,WNW,302,0.0,0.0,63,0.00,,SKC,0.00,VWS V14.01,2013-03-27 04:30:00,
2013-03-26 23:33:00,32.4,22.7,30.19,WNW,302,0.0,0.0,67,0.00,,SKC,0.00,VWS V14.01,2013-03-27 04:33:00,
2013-03-26 23:38:00,32.1,22.8,30.19,WNW,302,0.0,1.0,68,0.00,,SKC,0.00,VWS V14.01,2013-03-27 04:38:00,
2013-03-26 23:43:00,32.0,22.6,30.19,WNW,302,0.0,1.0,68,0.00,,SKC,0.00,VWS V14.01,2013-03-27 04:43:00,
2013-03-26 23:48:00,31.9,22.9,30.19,WNW,302,0.0,1.0,69,0.00,,SKC,0.00,VWS V14.01,2013-03-27 04:48:00,
2013-03-26 23:53:00,31.9,22.9,30.19,WNW,302,0.0,1.0,69,0.00,,SKC,0.00,VWS V14.01,2013-03-27 04:53:00,
2013-03-26 23:58:00,32.0,23.0,30.20,WNW,302,0.0,1.0,69,0.00,,SKC,0.00,VWS V14.01,2013-03-27 04:58:00,